sensor_id;sensor_type;location;lat;lon;timestamp;noise_LAeq;noise_LA_min;noise_LA_max;noise_LA01;noise_LA95
66458;Laerm;56835;52.198;4.826;2022-10-14T00:00:03;53.96;52.38;55.49;;
66458;Laerm;56835;52.198;4.826;2022-10-14T00:00:14;54.00;52.31;55.41;;
66458;Laerm;56835;52.198;4.826;2022-10-14T00:00:24;54.04;52.40;55.39;;
66458;Laerm;56835;52.198;4.826;2022-10-14T00:00:34;54.09;52.21;55.83;;
66458;Laerm;56835;52.198;4.826;2022-10-14T00:00:45;54.05;51.56;55.40;;
66458;Laerm;56835;52.198;4.826;2022-10-14T00:00:59;54.04;52.06;55.34;;
66458;Laerm;56835;52.198;4.826;2022-10-14T00:01:11;54.00;52.26;55.55;;
66458;Laerm;56835;52.198;4.826;2022-10-14T00:01:22;53.97;52.67;55.23;;
66458;Laerm;56835;52.198;4.826;2022-10-14T00:01:33;54.03;52.08;55.41;;
66458;Laerm;56835;52.198;4.826;2022-10-14T00:01:43;53.96;51.93;55.44;;
66458;Laerm;56835;52.198;4.826;2022-10-14T00:01:53;54.00;52.62;55.58;;
66458;Laerm;56835;52.198;4.826;2022-10-14T00:02:03;54.04;52.43;55.53;;
66458;Laerm;56835;52.198;4.826;2022-10-14T00:02:14;54.01;51.87;55.59;;
66458;Laerm;56835;52.198;4.826;2022-10-14T00:02:24;54.06;52.34;55.50;;
66458;Laerm;56835;52.198;4.826;2022-10-14T00:02:34;54.06;52.53;55.54;;
66458;Laerm;56835;52.198;4.826;2022-10-14T00:02:44;54.02;51.76;55.19;;
66458;Laerm;56835;52.198;4.826;2022-10-14T00:02:55;54.01;52.06;55.30;;
66458;Laerm;56835;52.198;4.826;2022-10-14T00:03:05;54.01;52.26;55.52;;
66458;Laerm;56835;52.198;4.826;2022-10-14T00:03:15;54.10;52.54;55.47;;
66458;Laerm;56835;52.198;4.826;2022-10-14T00:03:26;54.02;52.31;55.64;;
66458;Laerm;56835;52.198;4.826;2022-10-14T00:03:36;54.02;52.21;55.49;;
66458;Laerm;56835;52.198;4.826;2022-10-14T00:03:47;53.99;52.34;55.62;;
66458;Laerm;56835;52.198;4.826;2022-10-14T00:03:58;54.09;52.73;55.42;;
66458;Laerm;56835;52.198;4.826;2022-10-14T00:04:08;54.01;52.36;55.29;;
66458;Laerm;56835;52.198;4.826;2022-10-14T00:04:18;53.97;52.43;55.44;;
66458;Laerm;56835;52.198;4.826;2022-10-14T00:04:28;54.02;52.66;55.35;;
66458;Laerm;56835;52.198;4.826;2022-10-14T00:04:39;54.06;52.18;55.40;;
66458;Laerm;56835;52.198;4.826;2022-10-14T00:04:49;54.01;52.55;55.44;;
66458;Laerm;56835;52.198;4.826;2022-10-14T00:04:59;53.98;52.48;55.36;;
66458;Laerm;56835;52.198;4.826;2022-10-14T00:05:10;54.00;52.36;55.74;;
66458;Laerm;56835;52.198;4.826;2022-10-14T00:05:20;54.02;52.18;55.49;;
66458;Laerm;56835;52.198;4.826;2022-10-14T00:05:30;54.03;52.09;55.24;;
66458;Laerm;56835;52.198;4.826;2022-10-14T00:05:40;54.01;51.92;55.56;;
66458;Laerm;56835;52.198;4.826;2022-10-14T00:05:51;53.96;52.21;55.80;;
66458;Laerm;56835;52.198;4.826;2022-10-14T00:06:08;54.03;52.58;55.34;;
66458;Laerm;56835;52.198;4.826;2022-10-14T00:06:20;54.01;51.95;55.96;;
66458;Laerm;56835;52.198;4.826;2022-10-14T00:06:31;54.01;51.97;55.64;;
66458;Laerm;56835;52.198;4.826;2022-10-14T00:06:42;54.01;51.98;55.38;;
66458;Laerm;56835;52.198;4.826;2022-10-14T00:06:52;54.00;52.23;55.26;;
66458;Laerm;56835;52.198;4.826;2022-10-14T00:07:03;54.02;52.46;55.44;;
66458;Laerm;56835;52.198;4.826;2022-10-14T00:07:13;54.11;52.49;55.51;;
66458;Laerm;56835;52.198;4.826;2022-10-14T00:07:23;53.97;52.45;55.18;;
66458;Laerm;56835;52.198;4.826;2022-10-14T00:07:33;54.03;52.47;55.60;;
66458;Laerm;56835;52.198;4.826;2022-10-14T00:07:44;54.09;52.24;55.40;;
66458;Laerm;56835;52.198;4.826;2022-10-14T00:07:54;53.99;52.29;55.28;;
66458;Laerm;56835;52.198;4.826;2022-10-14T00:08:04;53.91;51.84;55.39;;
66458;Laerm;56835;52.198;4.826;2022-10-14T00:08:15;53.79;52.13;55.18;;
66458;Laerm;56835;52.198;4.826;2022-10-14T00:08:25;53.91;51.77;55.36;;
66458;Laerm;56835;52.198;4.826;2022-10-14T00:08:35;53.99;51.95;55.83;;
66458;Laerm;56835;52.198;4.826;2022-10-14T00:08:46;54.09;52.22;55.46;;
66458;Laerm;56835;52.198;4.826;2022-10-14T00:08:59;54.02;52.53;55.64;;
66458;Laerm;56835;52.198;4.826;2022-10-14T00:09:10;53.98;52.11;55.44;;
66458;Laerm;56835;52.198;4.826;2022-10-14T00:09:20;54.00;52.24;55.40;;
66458;Laerm;56835;52.198;4.826;2022-10-14T00:09:30;54.06;52.55;55.56;;
66458;Laerm;56835;52.198;4.826;2022-10-14T00:09:40;54.01;52.43;55.67;;
66458;Laerm;56835;52.198;4.826;2022-10-14T00:09:51;54.05;52.26;55.38;;
66458;Laerm;56835;52.198;4.826;2022-10-14T00:10:02;53.95;51.98;55.16;;
66458;Laerm;56835;52.198;4.826;2022-10-14T00:10:13;54.02;52.13;55.74;;
66458;Laerm;56835;52.198;4.826;2022-10-14T00:10:23;54.05;52.60;55.71;;
66458;Laerm;56835;52.198;4.826;2022-10-14T00:10:35;53.94;52.30;55.29;;
66458;Laerm;56835;52.198;4.826;2022-10-14T00:10:46;53.99;52.18;55.38;;
66458;Laerm;56835;52.198;4.826;2022-10-14T00:10:56;53.96;52.52;55.35;;
66458;Laerm;56835;52.198;4.826;2022-10-14T00:11:07;53.99;52.36;55.38;;
66458;Laerm;56835;52.198;4.826;2022-10-14T00:11:28;54.01;52.19;55.76;;
66458;Laerm;56835;52.198;4.826;2022-10-14T00:11:39;54.01;51.79;55.66;;
66458;Laerm;56835;52.198;4.826;2022-10-14T00:11:49;54.00;52.24;55.78;;
66458;Laerm;56835;52.198;4.826;2022-10-14T00:12:00;54.00;52.47;55.55;;
66458;Laerm;56835;52.198;4.826;2022-10-14T00:12:10;53.97;52.27;55.53;;
66458;Laerm;56835;52.198;4.826;2022-10-14T00:12:20;54.01;52.35;55.63;;
66458;Laerm;56835;52.198;4.826;2022-10-14T00:12:31;53.96;52.18;55.32;;
66458;Laerm;56835;52.198;4.826;2022-10-14T00:12:41;54.02;51.93;55.54;;
66458;Laerm;56835;52.198;4.826;2022-10-14T00:12:51;53.98;51.84;55.44;;
66458;Laerm;56835;52.198;4.826;2022-10-14T00:13:02;54.04;52.59;55.44;;
66458;Laerm;56835;52.198;4.826;2022-10-14T00:13:12;54.15;52.44;55.61;;
66458;Laerm;56835;52.198;4.826;2022-10-14T00:13:22;54.08;52.61;55.49;;
66458;Laerm;56835;52.198;4.826;2022-10-14T00:13:33;54.04;52.29;55.23;;
66458;Laerm;56835;52.198;4.826;2022-10-14T00:13:43;54.10;52.57;55.61;;
66458;Laerm;56835;52.198;4.826;2022-10-14T00:13:58;54.07;51.97;55.46;;
66458;Laerm;56835;52.198;4.826;2022-10-14T00:14:12;54.13;51.93;55.92;;
66458;Laerm;56835;52.198;4.826;2022-10-14T00:14:23;53.98;51.88;55.72;;
66458;Laerm;56835;52.198;4.826;2022-10-14T00:14:33;53.97;51.94;55.65;;
66458;Laerm;56835;52.198;4.826;2022-10-14T00:14:43;53.99;52.74;55.29;;
66458;Laerm;56835;52.198;4.826;2022-10-14T00:14:54;54.02;52.17;55.50;;
66458;Laerm;56835;52.198;4.826;2022-10-14T00:15:05;54.02;52.15;55.56;;
66458;Laerm;56835;52.198;4.826;2022-10-14T00:15:16;53.98;52.54;55.46;;
66458;Laerm;56835;52.198;4.826;2022-10-14T00:15:26;53.95;52.03;55.14;;
66458;Laerm;56835;52.198;4.826;2022-10-14T00:15:39;54.03;52.04;55.27;;
66458;Laerm;56835;52.198;4.826;2022-10-14T00:15:50;54.01;52.42;55.50;;
66458;Laerm;56835;52.198;4.826;2022-10-14T00:16:00;54.05;52.36;55.32;;
66458;Laerm;56835;52.198;4.826;2022-10-14T00:16:18;54.07;52.23;56.01;;
66458;Laerm;56835;52.198;4.826;2022-10-14T00:16:30;53.97;51.90;55.39;;
66458;Laerm;56835;52.198;4.826;2022-10-14T00:16:41;53.99;52.29;55.37;;
66458;Laerm;56835;52.198;4.826;2022-10-14T00:16:53;53.97;52.25;55.50;;
66458;Laerm;56835;52.198;4.826;2022-10-14T00:17:03;53.97;52.14;55.17;;
66458;Laerm;56835;52.198;4.826;2022-10-14T00:17:13;53.91;52.09;55.88;;
66458;Laerm;56835;52.198;4.826;2022-10-14T00:17:24;54.06;51.65;55.55;;
66458;Laerm;56835;52.198;4.826;2022-10-14T00:17:34;54.08;51.98;55.81;;
66458;Laerm;56835;52.198;4.826;2022-10-14T00:17:45;54.04;51.82;55.47;;
66458;Laerm;56835;52.198;4.826;2022-10-14T00:17:55;54.06;52.15;55.47;;
66458;Laerm;56835;52.198;4.826;2022-10-14T00:18:06;53.98;52.17;55.42;;
66458;Laerm;56835;52.198;4.826;2022-10-14T00:18:17;53.99;52.35;55.41;;
66458;Laerm;56835;52.198;4.826;2022-10-14T00:18:27;54.03;52.30;55.41;;
66458;Laerm;56835;52.198;4.826;2022-10-14T00:18:38;54.03;52.26;55.52;;
66458;Laerm;56835;52.198;4.826;2022-10-14T00:18:48;54.04;51.19;55.39;;
66458;Laerm;56835;52.198;4.826;2022-10-14T00:18:59;54.04;52.54;55.64;;
66458;Laerm;56835;52.198;4.826;2022-10-14T00:19:09;54.06;52.42;55.30;;
66458;Laerm;56835;52.198;4.826;2022-10-14T00:19:20;53.98;51.48;55.12;;
66458;Laerm;56835;52.198;4.826;2022-10-14T00:19:30;53.96;51.66;55.19;;
66458;Laerm;56835;52.198;4.826;2022-10-14T00:19:40;54.04;52.31;55.32;;
66458;Laerm;56835;52.198;4.826;2022-10-14T00:19:50;54.11;52.68;55.51;;
66458;Laerm;56835;52.198;4.826;2022-10-14T00:20:01;54.01;52.37;55.41;;
66458;Laerm;56835;52.198;4.826;2022-10-14T00:20:11;54.06;52.07;55.49;;
66458;Laerm;56835;52.198;4.826;2022-10-14T00:20:22;53.98;52.41;55.43;;
66458;Laerm;56835;52.198;4.826;2022-10-14T00:20:32;54.02;52.01;55.24;;
66458;Laerm;56835;52.198;4.826;2022-10-14T00:20:43;53.96;51.62;55.60;;
66458;Laerm;56835;52.198;4.826;2022-10-14T00:21:02;54.00;51.99;55.52;;
66458;Laerm;56835;52.198;4.826;2022-10-14T00:21:12;53.97;52.23;55.55;;
66458;Laerm;56835;52.198;4.826;2022-10-14T00:21:23;53.97;52.54;55.19;;
66458;Laerm;56835;52.198;4.826;2022-10-14T00:21:33;53.98;52.40;55.53;;
66458;Laerm;56835;52.198;4.826;2022-10-14T00:21:44;53.92;51.83;55.20;;
66458;Laerm;56835;52.198;4.826;2022-10-14T00:21:54;54.04;52.24;55.48;;
66458;Laerm;56835;52.198;4.826;2022-10-14T00:22:05;53.98;52.32;55.20;;
66458;Laerm;56835;52.198;4.826;2022-10-14T00:22:15;54.00;52.42;55.54;;
66458;Laerm;56835;52.198;4.826;2022-10-14T00:22:25;53.91;51.62;55.38;;
66458;Laerm;56835;52.198;4.826;2022-10-14T00:22:35;53.98;52.35;55.06;;
66458;Laerm;56835;52.198;4.826;2022-10-14T00:22:46;53.97;51.87;55.47;;
66458;Laerm;56835;52.198;4.826;2022-10-14T00:22:56;53.98;52.20;55.21;;
66458;Laerm;56835;52.198;4.826;2022-10-14T00:23:06;54.00;51.93;55.27;;
66458;Laerm;56835;52.198;4.826;2022-10-14T00:23:16;53.90;51.71;55.53;;
66458;Laerm;56835;52.198;4.826;2022-10-14T00:23:27;54.01;52.28;55.25;;
66458;Laerm;56835;52.198;4.826;2022-10-14T00:23:37;54.04;52.25;55.54;;
66458;Laerm;56835;52.198;4.826;2022-10-14T00:23:48;53.95;52.39;55.48;;
66458;Laerm;56835;52.198;4.826;2022-10-14T00:23:58;53.98;52.27;55.17;;
66458;Laerm;56835;52.198;4.826;2022-10-14T00:24:10;54.00;51.82;55.65;;
66458;Laerm;56835;52.198;4.826;2022-10-14T00:24:20;53.91;51.88;55.30;;
66458;Laerm;56835;52.198;4.826;2022-10-14T00:24:31;54.01;52.20;55.39;;
66458;Laerm;56835;52.198;4.826;2022-10-14T00:24:41;53.97;51.80;55.19;;
66458;Laerm;56835;52.198;4.826;2022-10-14T00:24:51;53.98;52.46;55.38;;
66458;Laerm;56835;52.198;4.826;2022-10-14T00:25:02;53.93;52.27;55.43;;
66458;Laerm;56835;52.198;4.826;2022-10-14T00:25:12;53.84;51.77;55.28;;
66458;Laerm;56835;52.198;4.826;2022-10-14T00:25:23;53.95;51.89;55.40;;
66458;Laerm;56835;52.198;4.826;2022-10-14T00:25:36;54.01;52.07;55.41;;
66458;Laerm;56835;52.198;4.826;2022-10-14T00:25:46;54.02;52.03;55.34;;
66458;Laerm;56835;52.198;4.826;2022-10-14T00:25:57;53.97;52.11;55.38;;
66458;Laerm;56835;52.198;4.826;2022-10-14T00:26:13;53.89;52.30;55.32;;
66458;Laerm;56835;52.198;4.826;2022-10-14T00:26:24;53.96;52.26;55.41;;
66458;Laerm;56835;52.198;4.826;2022-10-14T00:26:36;53.91;51.96;55.14;;
66458;Laerm;56835;52.198;4.826;2022-10-14T00:26:47;54.02;52.80;55.45;;
66458;Laerm;56835;52.198;4.826;2022-10-14T00:26:57;53.97;52.19;55.21;;
66458;Laerm;56835;52.198;4.826;2022-10-14T00:27:07;53.96;52.62;55.31;;
66458;Laerm;56835;52.198;4.826;2022-10-14T00:27:18;53.96;51.88;55.21;;
66458;Laerm;56835;52.198;4.826;2022-10-14T00:27:28;53.90;51.97;55.39;;
66458;Laerm;56835;52.198;4.826;2022-10-14T00:27:39;53.95;51.83;55.42;;
66458;Laerm;56835;52.198;4.826;2022-10-14T00:27:49;53.94;52.04;55.69;;
66458;Laerm;56835;52.198;4.826;2022-10-14T00:27:59;53.91;52.37;55.31;;
66458;Laerm;56835;52.198;4.826;2022-10-14T00:28:12;53.89;52.58;55.45;;
66458;Laerm;56835;52.198;4.826;2022-10-14T00:28:22;53.98;52.26;55.44;;
66458;Laerm;56835;52.198;4.826;2022-10-14T00:28:33;53.91;51.62;55.34;;
66458;Laerm;56835;52.198;4.826;2022-10-14T00:28:43;53.93;52.27;55.37;;
66458;Laerm;56835;52.198;4.826;2022-10-14T00:28:53;53.92;52.31;55.63;;
66458;Laerm;56835;52.198;4.826;2022-10-14T00:29:06;53.93;52.18;55.47;;
66458;Laerm;56835;52.198;4.826;2022-10-14T00:29:17;53.86;52.22;55.26;;
66458;Laerm;56835;52.198;4.826;2022-10-14T00:29:27;53.94;52.08;55.66;;
66458;Laerm;56835;52.198;4.826;2022-10-14T00:29:38;54.03;52.58;55.26;;
66458;Laerm;56835;52.198;4.826;2022-10-14T00:29:48;54.02;52.36;55.33;;
66458;Laerm;56835;52.198;4.826;2022-10-14T00:29:58;54.04;52.27;56.15;;
66458;Laerm;56835;52.198;4.826;2022-10-14T00:30:09;53.98;52.05;55.40;;
66458;Laerm;56835;52.198;4.826;2022-10-14T00:30:19;53.96;52.23;55.48;;
66458;Laerm;56835;52.198;4.826;2022-10-14T00:30:29;53.83;52.22;55.46;;
66458;Laerm;56835;52.198;4.826;2022-10-14T00:30:39;53.96;51.98;55.30;;
66458;Laerm;56835;52.198;4.826;2022-10-14T00:30:57;53.96;52.48;55.29;;
66458;Laerm;56835;52.198;4.826;2022-10-14T00:31:07;54.00;52.46;55.77;;
66458;Laerm;56835;52.198;4.826;2022-10-14T00:31:17;53.84;52.10;55.38;;
66458;Laerm;56835;52.198;4.826;2022-10-14T00:31:28;53.88;51.91;55.51;;
66458;Laerm;56835;52.198;4.826;2022-10-14T00:31:38;53.84;52.12;55.18;;
66458;Laerm;56835;52.198;4.826;2022-10-14T00:31:48;53.85;52.01;55.65;;
66458;Laerm;56835;52.198;4.826;2022-10-14T00:32:00;53.87;52.29;55.25;;
66458;Laerm;56835;52.198;4.826;2022-10-14T00:32:11;53.82;51.90;55.36;;
66458;Laerm;56835;52.198;4.826;2022-10-14T00:32:21;53.93;52.16;55.35;;
66458;Laerm;56835;52.198;4.826;2022-10-14T00:32:31;53.87;51.94;55.33;;
66458;Laerm;56835;52.198;4.826;2022-10-14T00:32:42;53.94;52.42;55.40;;
66458;Laerm;56835;52.198;4.826;2022-10-14T00:32:52;53.88;52.29;55.31;;
66458;Laerm;56835;52.198;4.826;2022-10-14T00:33:02;53.90;51.97;55.31;;
66458;Laerm;56835;52.198;4.826;2022-10-14T00:33:12;53.87;52.00;55.69;;
66458;Laerm;56835;52.198;4.826;2022-10-14T00:33:23;53.97;52.16;55.23;;
66458;Laerm;56835;52.198;4.826;2022-10-14T00:33:33;54.02;52.44;55.26;;
66458;Laerm;56835;52.198;4.826;2022-10-14T00:33:44;53.95;51.75;55.83;;
66458;Laerm;56835;52.198;4.826;2022-10-14T00:33:54;53.87;52.07;55.30;;
66458;Laerm;56835;52.198;4.826;2022-10-14T00:34:05;53.85;52.33;55.20;;
66458;Laerm;56835;52.198;4.826;2022-10-14T00:34:15;53.99;52.37;55.33;;
66458;Laerm;56835;52.198;4.826;2022-10-14T00:34:25;53.66;52.09;55.57;;
66458;Laerm;56835;52.198;4.826;2022-10-14T00:34:35;53.57;51.75;55.50;;
66458;Laerm;56835;52.198;4.826;2022-10-14T00:34:46;53.76;51.82;55.48;;
66458;Laerm;56835;52.198;4.826;2022-10-14T00:34:56;53.94;52.20;55.23;;
66458;Laerm;56835;52.198;4.826;2022-10-14T00:35:06;53.83;51.76;55.11;;
66458;Laerm;56835;52.198;4.826;2022-10-14T00:35:17;53.83;51.83;55.19;;
66458;Laerm;56835;52.198;4.826;2022-10-14T00:35:27;53.84;52.42;55.17;;
66458;Laerm;56835;52.198;4.826;2022-10-14T00:35:37;53.86;52.18;55.30;;
66458;Laerm;56835;52.198;4.826;2022-10-14T00:35:58;53.88;52.21;55.12;;
66458;Laerm;56835;52.198;4.826;2022-10-14T00:36:12;53.88;51.53;55.49;;
66458;Laerm;56835;52.198;4.826;2022-10-14T00:36:23;53.89;52.04;55.42;;
66458;Laerm;56835;52.198;4.826;2022-10-14T00:36:33;53.91;52.00;55.34;;
66458;Laerm;56835;52.198;4.826;2022-10-14T00:36:43;53.94;52.23;55.60;;
66458;Laerm;56835;52.198;4.826;2022-10-14T00:36:54;53.98;52.27;55.29;;
66458;Laerm;56835;52.198;4.826;2022-10-14T00:37:04;53.89;52.29;55.10;;
66458;Laerm;56835;52.198;4.826;2022-10-14T00:37:14;53.82;51.91;55.43;;
66458;Laerm;56835;52.198;4.826;2022-10-14T00:37:25;53.88;52.10;55.39;;
66458;Laerm;56835;52.198;4.826;2022-10-14T00:37:35;53.86;52.46;55.18;;
66458;Laerm;56835;52.198;4.826;2022-10-14T00:37:45;53.86;52.22;55.49;;
66458;Laerm;56835;52.198;4.826;2022-10-14T00:37:55;53.95;51.98;55.40;;
66458;Laerm;56835;52.198;4.826;2022-10-14T00:38:06;53.88;51.95;55.26;;
66458;Laerm;56835;52.198;4.826;2022-10-14T00:38:16;53.83;51.60;55.25;;
66458;Laerm;56835;52.198;4.826;2022-10-14T00:38:26;53.85;52.31;55.12;;
66458;Laerm;56835;52.198;4.826;2022-10-14T00:38:36;53.88;51.60;55.29;;
66458;Laerm;56835;52.198;4.826;2022-10-14T00:38:47;53.82;52.36;55.05;;
66458;Laerm;56835;52.198;4.826;2022-10-14T00:38:57;53.97;51.90;55.72;;
66458;Laerm;56835;52.198;4.826;2022-10-14T00:39:08;53.95;52.39;55.55;;
66458;Laerm;56835;52.198;4.826;2022-10-14T00:39:18;53.90;52.19;55.30;;
66458;Laerm;56835;52.198;4.826;2022-10-14T00:39:28;53.92;52.54;55.64;;
66458;Laerm;56835;52.198;4.826;2022-10-14T00:39:38;53.86;51.62;55.46;;
66458;Laerm;56835;52.198;4.826;2022-10-14T00:39:49;53.79;52.06;55.13;;
66458;Laerm;56835;52.198;4.826;2022-10-14T00:39:59;53.88;51.68;55.15;;
66458;Laerm;56835;52.198;4.826;2022-10-14T00:40:09;53.95;51.88;55.32;;
66458;Laerm;56835;52.198;4.826;2022-10-14T00:40:20;53.93;51.65;55.49;;
66458;Laerm;56835;52.198;4.826;2022-10-14T00:40:30;53.90;52.10;55.11;;
66458;Laerm;56835;52.198;4.826;2022-10-14T00:40:40;53.87;52.04;55.31;;
66458;Laerm;56835;52.198;4.826;2022-10-14T00:40:51;53.87;52.25;55.06;;
66458;Laerm;56835;52.198;4.826;2022-10-14T00:41:02;53.82;51.78;55.47;;
66458;Laerm;56835;52.198;4.826;2022-10-14T00:41:13;53.85;52.22;55.35;;
66458;Laerm;56835;52.198;4.826;2022-10-14T00:41:27;53.90;52.52;55.24;;
66458;Laerm;56835;52.198;4.826;2022-10-14T00:41:38;53.84;51.79;55.34;;
66458;Laerm;56835;52.198;4.826;2022-10-14T00:41:48;53.84;51.61;55.26;;
66458;Laerm;56835;52.198;4.826;2022-10-14T00:41:59;53.85;52.39;55.28;;
66458;Laerm;56835;52.198;4.826;2022-10-14T00:42:13;53.82;51.69;55.31;;
66458;Laerm;56835;52.198;4.826;2022-10-14T00:42:23;53.79;52.02;55.25;;
66458;Laerm;56835;52.198;4.826;2022-10-14T00:42:34;53.92;51.86;55.28;;
66458;Laerm;56835;52.198;4.826;2022-10-14T00:42:44;53.89;52.18;55.33;;
66458;Laerm;56835;52.198;4.826;2022-10-14T00:42:54;53.87;52.38;55.10;;
66458;Laerm;56835;52.198;4.826;2022-10-14T00:43:08;53.94;51.95;55.23;;
66458;Laerm;56835;52.198;4.826;2022-10-14T00:43:19;53.91;52.08;55.39;;
66458;Laerm;56835;52.198;4.826;2022-10-14T00:43:47;53.86;52.13;55.11;;
66458;Laerm;56835;52.198;4.826;2022-10-14T00:44:56;53.85;52.25;55.12;;
66458;Laerm;56835;52.198;4.826;2022-10-14T00:45:11;53.80;51.65;55.59;;
66458;Laerm;56835;52.198;4.826;2022-10-14T00:45:23;53.81;52.10;55.23;;
66458;Laerm;56835;52.198;4.826;2022-10-14T00:45:33;53.84;51.91;55.31;;
66458;Laerm;56835;52.198;4.826;2022-10-14T00:45:43;53.80;52.14;55.20;;
66458;Laerm;56835;52.198;4.826;2022-10-14T00:45:54;53.81;51.90;55.14;;
66458;Laerm;56835;52.198;4.826;2022-10-14T00:46:04;53.87;51.68;55.50;;
66458;Laerm;56835;52.198;4.826;2022-10-14T00:46:14;53.80;52.17;55.11;;
66458;Laerm;56835;52.198;4.826;2022-10-14T00:46:25;53.86;52.41;55.41;;
66458;Laerm;56835;52.198;4.826;2022-10-14T00:46:37;53.83;51.98;55.30;;
66458;Laerm;56835;52.198;4.826;2022-10-14T00:46:48;53.81;52.20;55.14;;
66458;Laerm;56835;52.198;4.826;2022-10-14T00:46:59;53.78;51.56;55.14;;
66458;Laerm;56835;52.198;4.826;2022-10-14T00:47:09;53.81;52.34;55.27;;
66458;Laerm;56835;52.198;4.826;2022-10-14T00:47:19;53.86;51.79;55.25;;
66458;Laerm;56835;52.198;4.826;2022-10-14T00:47:30;53.85;52.35;55.16;;
66458;Laerm;56835;52.198;4.826;2022-10-14T00:47:41;53.87;52.10;55.33;;
66458;Laerm;56835;52.198;4.826;2022-10-14T00:47:51;53.81;51.83;55.06;;
66458;Laerm;56835;52.198;4.826;2022-10-14T00:48:02;53.85;52.11;55.12;;
66458;Laerm;56835;52.198;4.826;2022-10-14T00:48:13;53.87;52.47;55.28;;
66458;Laerm;56835;52.198;4.826;2022-10-14T00:48:23;53.83;51.91;55.28;;
66458;Laerm;56835;52.198;4.826;2022-10-14T00:48:35;53.75;52.12;55.11;;
66458;Laerm;56835;52.198;4.826;2022-10-14T00:48:45;53.80;52.39;55.15;;
66458;Laerm;56835;52.198;4.826;2022-10-14T00:48:56;53.81;51.96;55.19;;
66458;Laerm;56835;52.198;4.826;2022-10-14T00:49:15;53.79;52.05;55.50;;
66458;Laerm;56835;52.198;4.826;2022-10-14T00:49:27;53.79;52.07;55.46;;
66458;Laerm;56835;52.198;4.826;2022-10-14T00:49:40;53.82;52.23;55.24;;
66458;Laerm;56835;52.198;4.826;2022-10-14T00:49:51;53.80;52.02;55.03;;
66458;Laerm;56835;52.198;4.826;2022-10-14T00:50:01;53.78;51.98;55.23;;
66458;Laerm;56835;52.198;4.826;2022-10-14T00:50:12;53.77;52.00;54.93;;
66458;Laerm;56835;52.198;4.826;2022-10-14T00:50:23;53.74;52.13;55.18;;
66458;Laerm;56835;52.198;4.826;2022-10-14T00:50:34;53.78;52.44;55.63;;
66458;Laerm;56835;52.198;4.826;2022-10-14T00:50:46;53.76;52.05;55.18;;
66458;Laerm;56835;52.198;4.826;2022-10-14T00:50:58;53.81;51.82;55.50;;
66458;Laerm;56835;52.198;4.826;2022-10-14T00:51:08;53.81;52.35;55.24;;
66458;Laerm;56835;52.198;4.826;2022-10-14T00:51:19;53.79;52.42;55.24;;
66458;Laerm;56835;52.198;4.826;2022-10-14T00:51:30;53.76;51.62;55.60;;
66458;Laerm;56835;52.198;4.826;2022-10-14T00:51:41;53.79;52.51;55.08;;
66458;Laerm;56835;52.198;4.826;2022-10-14T00:52:27;53.79;51.95;55.18;;
66458;Laerm;56835;52.198;4.826;2022-10-14T00:52:31;53.60;51.46;55.45;;
66458;Laerm;56835;52.198;4.826;2022-10-14T00:52:41;53.87;52.24;55.08;;
66458;Laerm;56835;52.198;4.826;2022-10-14T00:52:52;53.78;52.19;55.59;;
66458;Laerm;56835;52.198;4.826;2022-10-14T00:53:02;53.76;51.95;55.27;;
66458;Laerm;56835;52.198;4.826;2022-10-14T00:53:13;53.73;51.46;55.14;;
66458;Laerm;56835;52.198;4.826;2022-10-14T00:53:24;53.74;51.81;55.29;;
66458;Laerm;56835;52.198;4.826;2022-10-14T00:53:35;53.74;52.14;55.48;;
66458;Laerm;56835;52.198;4.826;2022-10-14T00:53:46;53.79;52.02;55.42;;
66458;Laerm;56835;52.198;4.826;2022-10-14T00:53:56;53.79;52.16;55.21;;
66458;Laerm;56835;52.198;4.826;2022-10-14T00:54:06;53.78;51.99;55.12;;
66458;Laerm;56835;52.198;4.826;2022-10-14T00:54:19;53.75;52.09;55.17;;
66458;Laerm;56835;52.198;4.826;2022-10-14T00:54:38;53.81;52.21;55.11;;
66458;Laerm;56835;52.198;4.826;2022-10-14T00:54:52;53.83;52.23;55.39;;
66458;Laerm;56835;52.198;4.826;2022-10-14T00:55:11;53.82;52.04;55.29;;
66458;Laerm;56835;52.198;4.826;2022-10-14T00:55:22;53.76;51.84;55.06;;
66458;Laerm;56835;52.198;4.826;2022-10-14T00:55:32;53.71;52.37;55.03;;
66458;Laerm;56835;52.198;4.826;2022-10-14T00:55:43;53.76;51.82;55.18;;
66458;Laerm;56835;52.198;4.826;2022-10-14T00:55:53;53.71;51.34;55.20;;
66458;Laerm;56835;52.198;4.826;2022-10-14T00:56:04;53.71;51.66;55.07;;
66458;Laerm;56835;52.198;4.826;2022-10-14T00:56:15;53.70;52.01;55.46;;
66458;Laerm;56835;52.198;4.826;2022-10-14T00:56:27;53.76;51.82;55.33;;
66458;Laerm;56835;52.198;4.826;2022-10-14T00:56:39;53.79;52.06;55.38;;
66458;Laerm;56835;52.198;4.826;2022-10-14T00:56:50;53.81;52.13;55.20;;
66458;Laerm;56835;52.198;4.826;2022-10-14T00:57:00;53.74;51.65;55.15;;
66458;Laerm;56835;52.198;4.826;2022-10-14T00:57:11;53.70;51.68;55.23;;
66458;Laerm;56835;52.198;4.826;2022-10-14T00:57:22;53.74;52.27;55.11;;
66458;Laerm;56835;52.198;4.826;2022-10-14T00:57:34;53.73;52.11;55.16;;
66458;Laerm;56835;52.198;4.826;2022-10-14T00:57:44;53.80;52.01;54.91;;
66458;Laerm;56835;52.198;4.826;2022-10-14T00:57:55;53.80;52.10;55.26;;
66458;Laerm;56835;52.198;4.826;2022-10-14T00:58:05;53.84;52.20;55.62;;
66458;Laerm;56835;52.198;4.826;2022-10-14T00:58:16;53.73;51.63;55.09;;
66458;Laerm;56835;52.198;4.826;2022-10-14T00:58:26;53.73;52.41;54.82;;
66458;Laerm;56835;52.198;4.826;2022-10-14T00:58:36;53.77;52.14;55.00;;
66458;Laerm;56835;52.198;4.826;2022-10-14T00:58:47;53.81;51.88;55.29;;
66458;Laerm;56835;52.198;4.826;2022-10-14T00:58:57;53.83;52.45;55.03;;
66458;Laerm;56835;52.198;4.826;2022-10-14T00:59:09;53.78;52.06;55.15;;
66458;Laerm;56835;52.198;4.826;2022-10-14T00:59:19;53.70;52.17;54.98;;
66458;Laerm;56835;52.198;4.826;2022-10-14T00:59:30;53.73;52.19;55.19;;
66458;Laerm;56835;52.198;4.826;2022-10-14T00:59:41;53.74;52.08;55.06;;
66458;Laerm;56835;52.198;4.826;2022-10-14T00:59:52;53.72;51.81;55.20;;
66458;Laerm;56835;52.198;4.826;2022-10-14T01:00:05;53.72;52.00;55.31;;
66458;Laerm;56835;52.198;4.826;2022-10-14T01:00:17;53.73;51.67;55.19;;
66458;Laerm;56835;52.198;4.826;2022-10-14T01:00:28;53.76;51.77;55.40;;
66458;Laerm;56835;52.198;4.826;2022-10-14T01:00:38;53.77;52.25;55.07;;
66458;Laerm;56835;52.198;4.826;2022-10-14T01:00:49;53.77;52.50;55.07;;
66458;Laerm;56835;52.198;4.826;2022-10-14T01:00:59;53.75;52.28;54.96;;
66458;Laerm;56835;52.198;4.826;2022-10-14T01:01:09;53.77;51.96;55.55;;
66458;Laerm;56835;52.198;4.826;2022-10-14T01:01:20;53.74;52.22;55.17;;
66458;Laerm;56835;52.198;4.826;2022-10-14T01:01:30;53.76;52.39;55.01;;
66458;Laerm;56835;52.198;4.826;2022-10-14T01:01:41;53.79;52.08;55.16;;
66458;Laerm;56835;52.198;4.826;2022-10-14T01:01:51;53.80;52.02;55.19;;
66458;Laerm;56835;52.198;4.826;2022-10-14T01:02:01;53.82;52.03;55.22;;
66458;Laerm;56835;52.198;4.826;2022-10-14T01:02:12;53.90;52.12;55.76;;
66458;Laerm;56835;52.198;4.826;2022-10-14T01:02:22;53.86;52.17;55.24;;
66458;Laerm;56835;52.198;4.826;2022-10-14T01:02:32;53.79;52.27;55.03;;
66458;Laerm;56835;52.198;4.826;2022-10-14T01:02:43;53.75;52.06;55.17;;
66458;Laerm;56835;52.198;4.826;2022-10-14T01:02:54;53.76;52.20;55.36;;